Time;durP1;ratioP1;P1;durP2;ratioP2;P2;SDS_P1;SDS_P2;PMS_P1;PMS_P2;Temp;Humidity;BMP_temperature;BMP_pressure;BME280_temperature;BME280_humidity;BME280_pressure;Samples;Min_cycle;Max_cycle;Signal;HPM_P1;HPM_P2
2021/10/25 00:03:46;;;;;;;1.38;0.77;;;21.10;33.70;21.30;94433.00;;;;10432083;28;45293;-59
2021/10/25 00:08:46;;;;;;;0.50;0.50;;;21.10;33.70;21.30;94425.00;;;;10431148;28;47366;-59
2021/10/25 00:13:47;;;;;;;0.63;0.60;;;21.10;33.60;21.30;94425.00;;;;10431497;28;47011;-60
2021/10/25 00:18:48;;;;;;;1.05;0.52;;;21.10;33.70;21.30;94404.00;;;;10431929;28;45498;-59
2021/10/25 00:23:49;;;;;;;1.20;0.75;;;21.20;33.80;21.30;94413.00;;;;10432803;28;45405;-59
2021/10/25 00:28:49;;;;;;;1.02;0.63;;;21.10;33.80;21.20;94415.00;;;;10432745;28;45439;-59
2021/10/25 00:33:50;;;;;;;1.05;0.60;;;21.10;33.70;21.30;94428.00;;;;10413053;28;48297;-59
2021/10/25 00:38:51;;;;;;;1.15;0.70;;;21.10;33.70;21.20;94427.00;;;;10431870;28;45338;-59
2021/10/25 00:43:51;;;;;;;1.15;0.60;;;21.10;33.70;21.20;94422.00;;;;10432009;28;45229;-60
2021/10/25 00:48:52;;;;;;;0.98;0.70;;;21.10;33.70;21.20;94411.00;;;;10430667;28;45600;-61
2021/10/25 00:53:53;;;;;;;1.05;0.60;;;21.10;33.80;21.20;94418.00;;;;10430476;28;46428;-59
2021/10/25 00:58:53;;;;;;;0.82;0.45;;;21.10;33.80;21.20;94428.00;;;;10435554;28;45465;-60
2021/10/25 01:03:54;;;;;;;0.90;0.50;;;21.10;33.80;21.20;94412.00;;;;10430498;28;46371;-59
2021/10/25 01:08:57;;;;;;;0.80;0.60;;;21.10;33.80;21.20;94398.00;;;;10436815;28;45532;-60
2021/10/25 01:13:58;;;;;;;0.57;0.40;;;21.10;33.80;21.20;94391.00;;;;10437999;28;45707;-59
2021/10/25 01:18:59;;;;;;;0.90;0.50;;;21.00;33.70;21.20;94398.00;;;;10435300;28;45298;-59
2021/10/25 01:24:00;;;;;;;0.95;0.60;;;21.00;33.80;21.20;94394.00;;;;10434823;28;48231;-59
2021/10/25 01:29:01;;;;;;;0.63;0.40;;;21.10;34.00;21.20;94379.00;;;;10436407;28;45538;-59
2021/10/25 01:34:02;;;;;;;0.90;0.50;;;21.00;33.90;21.10;94353.00;;;;10436072;28;46695;-59
2021/10/25 01:39:03;;;;;;;0.65;0.45;;;21.00;33.90;21.10;94370.00;;;;10419054;28;47155;-60
2021/10/25 01:44:10;;;;;;;0.40;0.40;;;21.00;34.50;21.10;94370.00;;;;10435525;28;45413;-59
2021/10/25 01:49:10;;;;;;;0.47;0.47;;;21.00;33.90;21.10;94381.00;;;;10419411;28;47431;-60
2021/10/25 01:54:11;;;;;;;1.00;0.50;;;21.00;33.80;21.10;94394.00;;;;10436503;28;45314;-59
2021/10/25 01:59:12;;;;;;;1.02;0.57;;;21.00;34.00;21.10;94382.00;;;;10436356;28;45144;-59
2021/10/25 02:04:13;;;;;;;0.40;0.40;;;20.90;33.90;21.10;94369.00;;;;10435230;28;45550;-59
2021/10/25 02:09:13;;;;;;;0.60;0.50;;;20.90;33.80;21.10;94361.00;;;;10417363;28;47106;-59
2021/10/25 02:14:14;;;;;;;0.60;0.40;;;21.00;34.00;21.10;94360.00;;;;10435308;28;46506;-59
2021/10/25 02:19:15;;;;;;;0.57;0.47;;;20.90;34.00;21.10;94352.00;;;;10435151;28;46030;-59
2021/10/25 02:24:16;;;;;;;1.23;0.50;;;20.90;33.90;21.10;94331.00;;;;10435798;28;45556;-59
2021/10/25 02:29:17;;;;;;;0.65;0.40;;;20.90;33.90;21.10;94342.00;;;;10435760;28;45418;-59
2021/10/25 02:34:18;;;;;;;0.57;0.50;;;20.90;34.00;21.10;94328.00;;;;10434238;28;45446;-59
2021/10/25 02:39:19;;;;;;;0.63;0.40;;;20.90;34.00;21.00;94333.00;;;;10433159;28;46312;-59
2021/10/25 02:44:19;;;;;;;0.77;0.47;;;20.90;33.90;21.10;94346.00;;;;10433581;28;45246;-60
2021/10/25 02:49:21;;;;;;;0.50;0.50;;;20.90;34.00;21.00;94353.00;;;;10435685;28;45501;-63
2021/10/25 02:54:24;;;;;;;0.57;0.50;;;20.90;34.00;21.00;94351.00;;;;10428764;28;45219;-62
2021/10/25 02:59:25;;;;;;;0.63;0.40;;;20.90;34.00;21.00;94368.00;;;;10415447;28;47832;-62
2021/10/25 03:04:26;;;;;;;0.75;0.50;;;20.90;34.00;21.00;94357.00;;;;10434899;28;45203;-62
2021/10/25 03:09:26;;;;;;;0.30;0.30;;;20.90;34.00;21.00;94354.00;;;;10416410;28;47438;-62
2021/10/25 03:14:27;;;;;;;0.52;0.47;;;20.90;34.00;21.00;94351.00;;;;10433934;28;45307;-61
2021/10/25 03:19:28;;;;;;;0.50;0.50;;;20.90;34.00;21.00;94344.00;;;;10433490;28;45590;-62
2021/10/25 03:24:29;;;;;;;0.88;0.50;;;20.80;34.00;21.00;94336.00;;;;10435381;28;45200;-62
2021/10/25 03:29:29;;;;;;;0.47;0.40;;;20.80;33.90;21.00;94322.00;;;;10433148;28;45152;-62
2021/10/25 03:34:30;;;;;;;0.60;0.55;;;20.80;33.80;21.00;94327.00;;;;10433418;28;45306;-63
2021/10/25 03:39:35;;;;;;;0.43;0.40;;;20.80;33.80;21.00;94328.00;;;;10433052;28;46398;-59
2021/10/25 03:44:52;;;;;;;0.50;0.30;;;20.80;34.00;21.00;94352.00;;;;10432976;28;45502;-59
2021/10/25 03:50:07;;;;;;;0.55;0.40;;;20.80;34.70;21.00;94354.00;;;;10432345;28;47854;-60
2021/10/25 04:00:35;;;;;;;0.52;0.40;;;20.80;33.90;21.00;94349.00;;;;10432796;28;45477;-59
2021/10/25 04:27:21;;;;;;;0.43;0.43;;;20.70;33.90;20.90;94336.00;;;;10360233;28;45654;-59
2021/10/25 04:32:21;;;;;;;1.00;0.47;;;20.70;33.90;20.90;94331.00;;;;10374523;28;46293;-59
2021/10/25 04:37:22;;;;;;;0.40;0.40;;;20.70;33.90;20.90;94319.00;;;;10398554;28;45443;-60
2021/10/25 04:42:23;;;;;;;1.10;0.50;;;20.70;34.00;20.90;94324.00;;;;10397957;28;45424;-59
2021/10/25 04:47:23;;;;;;;0.90;0.57;;;20.70;33.90;20.90;94317.00;;;;10397373;28;45397;-59
2021/10/25 04:52:24;;;;;;;0.50;0.40;;;20.70;34.00;20.90;94314.00;;;;10398427;28;45613;-59
2021/10/25 04:57:25;;;;;;;0.75;0.40;;;20.70;34.00;20.90;94314.00;;;;10397040;28;46862;-59
2021/10/25 05:02:26;;;;;;;0.65;0.50;;;20.70;34.00;20.80;94322.00;;;;10396885;28;46307;-60
2021/10/25 05:07:26;;;;;;;0.30;0.30;;;20.70;34.00;20.90;94328.00;;;;10396894;28;45229;-59
2021/10/25 05:12:27;;;;;;;0.45;0.40;;;20.70;34.00;20.90;94321.00;;;;10398057;28;45229;-59
2021/10/25 05:17:28;;;;;;;0.80;0.60;;;20.70;34.00;20.80;94317.00;;;;10396729;28;45204;-59
2021/10/25 05:22:30;;;;;;;0.80;0.50;;;20.70;34.00;20.90;94315.00;;;;10397310;28;45318;-59
2021/10/25 05:27:31;;;;;;;0.60;0.55;;;20.70;34.00;20.80;94316.00;;;;10395502;28;45255;-59
2021/10/25 05:32:31;;;;;;;0.70;0.60;;;20.70;34.00;20.80;94321.00;;;;10394989;28;45312;-59
2021/10/25 05:37:32;;;;;;;0.80;0.60;;;20.70;34.00;20.80;94312.00;;;;10395327;28;45337;-59
2021/10/25 05:42:33;;;;;;;0.90;0.70;;;20.70;34.10;20.80;94321.00;;;;10428793;28;47126;-59
2021/10/25 05:47:33;;;;;;;0.77;0.60;;;20.70;34.00;20.80;94308.00;;;;10436335;28;46520;-59
2021/10/25 05:52:34;;;;;;;0.80;0.60;;;20.70;34.10;20.80;94307.00;;;;10437484;28;45522;-59
2021/10/25 05:57:35;;;;;;;1.00;0.80;;;20.70;34.10;20.80;94307.00;;;;10419450;28;46863;-60
2021/10/25 06:02:37;;;;;;;1.00;0.90;;;20.70;34.00;20.80;94299.00;;;;10437598;28;45191;-59
2021/10/25 06:07:39;;;;;;;1.48;0.80;;;20.70;34.00;20.80;94299.00;;;;10429631;28;47037;-59
2021/10/25 06:12:44;;;;;;;1.38;0.70;;;20.70;34.00;20.80;94315.00;;;;10433340;28;45446;-60
2021/10/25 06:17:53;;;;;;;1.02;0.73;;;20.70;34.00;20.80;94326.00;;;;10435037;28;46280;-59
2021/10/25 06:22:56;;;;;;;1.23;0.90;;;20.70;34.00;20.80;94325.00;;;;10436967;28;46558;-59
2021/10/25 06:27:57;;;;;;;0.70;0.70;;;20.60;34.00;20.80;94326.00;;;;10418155;28;46841;-59
2021/10/25 06:32:58;;;;;;;1.00;0.70;;;20.70;34.00;20.80;94332.00;;;;10434469;28;46322;-59
2021/10/25 06:38:08;;;;;;;1.02;0.63;;;20.70;34.10;20.80;94329.00;;;;10435464;28;46641;-60
2021/10/25 06:43:12;;;;;;;0.90;0.75;;;20.70;34.10;20.80;94328.00;;;;10435056;28;45605;-59
2021/10/25 06:48:13;;;;;;;1.88;0.80;;;20.70;34.10;20.80;94336.00;;;;10434286;28;46579;-59
2021/10/25 06:53:16;;;;;;;2.38;0.77;;;20.70;34.20;20.80;94328.00;;;;10434840;28;45243;-60
2021/10/25 06:58:19;;;;;;;3.58;1.00;;;20.60;34.10;20.80;94328.00;;;;10433915;28;47794;-59
2021/10/25 07:03:20;;;;;;;1.83;1.08;;;20.60;34.20;20.80;94325.00;;;;10435136;28;45182;-59
2021/10/25 07:08:21;;;;;;;12.13;5.90;;;20.70;34.20;19.90;94345.00;;;;10434302;28;45224;-60
2021/10/25 07:13:23;;;;;;;13.15;5.38;;;20.40;31.80;20.40;94323.00;;;;10433454;28;45378;-60
2021/10/25 07:18:30;;;;;;;12.32;5.95;;;20.40;34.00;20.50;94332.00;;;;10434442;28;45435;-59
2021/10/25 07:26:07;;;;;;;10.02;5.13;;;20.40;33.00;20.60;94351.00;;;;10433776;28;45402;-59
2021/10/25 08:01:36;;;;;;;8.40;4.05;;;20.50;33.40;20.70;94355.00;;;;10391091;28;45296;-60
2021/10/25 08:12:19;;;;;;;6.18;3.33;;;20.50;33.00;20.70;94333.00;;;;10433591;28;45988;-59
2021/10/25 08:17:26;;;;;;;5.18;3.03;;;20.50;33.20;20.60;94357.00;;;;10379827;28;48206;-63
2021/10/25 08:22:27;;;;;;;4.55;2.78;;;20.50;33.10;20.60;94357.00;;;;10394744;28;46164;-64
2021/10/25 08:27:28;;;;;;;4.68;2.55;;;20.50;33.70;20.60;94348.00;;;;10394875;28;47133;-65
2021/10/25 08:42:58;;;;;;;5.95;2.38;;;20.50;34.10;20.70;94357.00;;;;10409735;28;45411;-62
2021/10/25 08:48:04;;;;;;;3.78;2.20;;;20.50;34.30;20.70;94346.00;;;;10430321;28;45374;-65
2021/10/25 08:53:07;;;;;;;5.27;2.17;;;20.50;34.30;20.70;94359.00;;;;10361311;28;46248;-63
2021/10/25 08:58:08;;;;;;;2.60;1.60;;;20.50;34.30;20.70;94353.00;;;;10379447;28;47458;-65
2021/10/25 09:03:09;;;;;;;4.00;1.63;;;20.60;34.10;20.60;94334.00;;;;10395932;28;45301;-63
2021/10/25 09:08:10;;;;;;;3.75;1.40;;;20.60;34.10;20.60;94325.00;;;;10396606;28;45495;-66
2021/10/25 09:13:16;;;;;;;2.75;1.40;;;20.60;34.00;20.70;94325.00;;;;10395899;28;47090;-66
2021/10/25 09:18:23;;;;;;;1.47;1.10;;;20.60;34.20;20.70;94326.00;;;;10395316;28;46409;-65
2021/10/25 09:23:27;;;;;;;2.50;1.42;;;20.50;34.00;20.70;94324.00;;;;10396072;28;47243;-65
2021/10/25 09:28:35;;;;;;;3.13;1.40;;;20.60;34.20;20.70;94324.00;;;;10394788;28;46868;-62
2021/10/25 09:33:38;;;;;;;4.10;1.50;;;20.60;34.50;20.60;94331.00;;;;10395932;28;48199;-67
2021/10/25 09:49:31;;;;;;;2.22;1.15;;;20.60;34.50;20.80;94327.00;;;;10395074;28;45224;-64
2021/10/25 09:54:34;;;;;;;2.97;1.30;;;20.60;34.80;20.70;94325.00;;;;10394629;28;48092;-66
2021/10/25 09:59:51;;;;;;;3.45;1.02;;;20.70;34.70;20.80;94313.00;;;;10394113;28;48404;-64
2021/10/25 10:04:57;;;;;;;2.47;1.15;;;20.70;34.80;20.80;94326.00;;;;10394955;28;45363;-64
2021/10/25 10:09:58;;;;;;;2.35;1.00;;;20.70;35.00;20.80;94311.00;;;;10388865;28;45379;-68
2021/10/25 10:15:02;;;;;;;2.15;1.05;;;20.70;35.10;20.80;94318.00;;;;10393504;28;46426;-64
2021/10/25 10:20:09;;;;;;;2.67;1.13;;;20.70;35.40;20.80;94315.00;;;;10392300;28;45208;-65
2021/10/25 10:25:10;;;;;;;2.20;1.05;;;20.70;35.50;20.80;94314.00;;;;10388528;28;46461;-62
2021/10/25 10:30:12;;;;;;;2.25;1.00;;;20.70;35.50;20.80;94313.00;;;;10374785;28;47095;-62
2021/10/25 10:35:16;;;;;;;1.98;1.13;;;20.70;35.30;20.80;94325.00;;;;10392730;28;45150;-61
2021/10/25 10:40:22;;;;;;;2.60;1.20;;;20.70;35.20;20.80;94308.00;;;;10392327;28;46566;-61
2021/10/25 10:45:23;;;;;;;1.55;1.00;;;20.70;35.30;20.80;94308.00;;;;10392806;28;45416;-62
2021/10/25 10:50:35;;;;;;;2.30;1.17;;;20.70;35.20;20.80;94302.00;;;;10365555;28;45516;-65
2021/10/25 10:55:43;;;;;;;2.92;0.88;;;20.70;35.50;20.90;94306.00;;;;10352817;28;45205;-67
2021/10/25 11:00:48;;;;;;;2.75;1.23;;;20.80;35.80;20.90;94288.00;;;;10364551;28;45474;-66
2021/10/25 11:06:04;;;;;;;1.88;0.85;;;20.80;35.80;20.90;94290.00;;;;10393293;28;46890;-66
2021/10/25 11:11:16;;;;;;;1.55;0.90;;;20.80;36.30;20.90;94293.00;;;;10367540;28;45470;-65
2021/10/25 11:21:37;;;;;;;2.00;0.90;;;20.80;36.50;21.00;94282.00;;;;10393076;28;45184;-66
2021/10/25 11:26:59;;;;;;;2.30;1.20;;;20.80;36.60;21.00;94264.00;;;;10391458;28;46296;-62
2021/10/25 11:32:06;;;;;;;2.25;1.20;;;20.80;36.80;20.90;94278.00;;;;10391861;28;46127;-61
2021/10/25 11:37:20;;;;;;;3.10;1.23;;;20.80;36.30;21.00;94277.00;;;;10390442;28;45384;-61
2021/10/25 11:42:31;;;;;;;1.83;1.30;;;20.90;36.20;20.80;94269.00;;;;10415480;28;45477;-64
2021/10/25 11:47:36;;;;;;;2.03;1.00;;;20.80;35.80;21.00;94263.00;;;;10366603;28;45292;-65
2021/10/25 11:52:49;;;;;;;2.78;0.90;;;20.80;36.10;21.00;94263.00;;;;10351250;28;46311;-64
2021/10/25 11:58:01;;;;;;;1.60;1.00;;;20.80;36.30;21.00;94254.00;;;;10350133;28;47120;-65
2021/10/25 12:03:10;;;;;;;1.83;1.13;;;20.80;36.30;21.00;94252.00;;;;10349902;28;48188;-66
2021/10/25 12:08:14;;;;;;;1.58;0.90;;;20.90;36.60;21.00;94235.00;;;;10350071;28;45172;-64
2021/10/25 12:13:16;;;;;;;2.03;1.02;;;20.90;37.20;21.00;94238.00;;;;10368577;28;47151;-62
2021/10/25 12:18:20;;;;;;;2.00;1.23;;;20.90;37.00;21.00;94241.00;;;;10406581;28;45565;-63
2021/10/25 12:23:24;;;;;;;1.80;1.20;;;20.90;36.70;21.00;94226.00;;;;10388683;28;47105;-62
2021/10/25 12:28:25;;;;;;;1.55;1.10;;;20.90;36.60;21.00;94227.00;;;;10389535;28;46666;-62
2021/10/25 12:33:26;;;;;;;2.97;1.33;;;20.90;36.50;21.10;94220.00;;;;10405737;28;45440;-62
2021/10/25 12:38:27;;;;;;;3.00;1.13;;;20.90;36.40;21.00;94203.00;;;;10405777;28;46059;-62
2021/10/25 12:43:43;;;;;;;1.58;1.13;;;20.90;36.40;21.00;94218.00;;;;10431061;28;46934;-63
2021/10/25 12:48:51;;;;;;;1.05;0.80;;;20.90;36.40;21.00;94215.00;;;;10416500;28;48308;-62
2021/10/25 12:53:52;;;;;;;5.63;1.10;;;20.90;36.40;21.00;94214.00;;;;10394387;28;45502;-62
2021/10/25 12:59:04;;;;;;;1.25;0.98;;;20.90;36.30;21.00;94203.00;;;;10397477;28;45211;-63
2021/10/25 13:04:06;;;;;;;1.70;1.10;;;20.90;36.40;21.00;94211.00;;;;10396461;28;45361;-62
2021/10/25 13:09:10;;;;;;;2.72;1.40;;;20.90;36.40;21.00;94212.00;;;;10395868;28;47209;-62
2021/10/25 13:14:12;;;;;;;1.55;1.30;;;20.90;36.40;21.00;94208.00;;;;10395639;28;45307;-61
2021/10/25 13:19:17;;;;;;;2.22;1.23;;;20.90;36.40;21.00;94211.00;;;;10395068;28;47162;-62
2021/10/25 13:24:17;;;;;;;2.92;1.38;;;20.80;36.30;21.00;94198.00;;;;10395085;28;48018;-62
2021/10/25 13:29:19;;;;;;;2.55;1.30;;;20.80;36.30;21.00;94204.00;;;;10395248;28;46296;-62
2021/10/25 13:34:21;;;;;;;2.90;1.30;;;20.80;36.30;20.90;94199.00;;;;10394577;28;45706;-62
2021/10/25 13:39:21;;;;;;;1.88;1.20;;;20.80;36.30;21.00;94196.00;;;;10394890;28;47901;-62
2021/10/25 13:44:22;;;;;;;1.98;1.17;;;20.80;36.30;20.90;94196.00;;;;10393417;28;47072;-61
2021/10/25 13:49:24;;;;;;;1.45;1.00;;;20.80;36.40;20.90;94192.00;;;;10393766;28;46099;-61
2021/10/25 13:54:25;;;;;;;2.28;1.10;;;20.80;37.00;20.90;94185.00;;;;10435636;28;47775;-62
2021/10/25 13:59:26;;;;;;;5.40;0.93;;;20.80;36.80;20.90;94186.00;;;;10417292;28;45424;-64
2021/10/25 14:04:26;;;;;;;1.88;0.90;;;20.80;37.40;21.00;94180.00;;;;10390877;28;47394;-62
2021/10/25 14:09:27;;;;;;;1.90;1.13;;;20.80;37.90;21.00;94188.00;;;;10393257;28;45627;-63
2021/10/25 14:14:29;;;;;;;2.67;1.13;;;20.80;37.60;21.00;94192.00;;;;10372386;28;46926;-62
2021/10/25 14:19:30;;;;;;;1.58;0.98;;;20.80;37.40;21.00;94205.00;;;;10389795;28;45459;-63
2021/10/25 14:24:31;;;;;;;2.90;1.38;;;20.90;37.40;20.90;94202.00;;;;10392762;28;46100;-62
2021/10/25 14:29:32;;;;;;;2.47;1.20;;;20.80;37.20;21.00;94190.00;;;;10393415;28;46018;-63
2021/10/25 14:34:39;;;;;;;5.05;1.13;;;20.80;37.20;20.90;94186.00;;;;10390247;28;45310;-65
2021/10/25 14:39:47;;;;;;;2.40;1.25;;;20.80;37.30;20.90;94199.00;;;;10395137;28;45640;-62
2021/10/25 14:44:57;;;;;;;4.57;1.10;;;20.80;37.50;21.00;94209.00;;;;10377568;28;47142;-65
2021/10/25 14:55:08;;;;;;;2.25;1.20;;;20.80;38.10;20.90;94193.00;;;;10394252;28;45226;-64
2021/10/25 15:00:09;;;;;;;2.38;1.08;;;20.80;37.90;21.00;94182.00;;;;10394291;28;47282;-66
2021/10/25 15:05:11;;;;;;;1.60;0.90;;;20.80;38.00;20.90;94191.00;;;;10393408;28;46258;-59
2021/10/25 15:10:13;;;;;;;2.50;1.20;;;20.80;37.70;21.00;94199.00;;;;10391368;28;46397;-61
2021/10/25 15:15:14;;;;;;;2.83;1.30;;;20.90;37.70;21.00;94198.00;;;;10391616;28;45930;-59
2021/10/25 15:20:15;;;;;;;2.20;1.00;;;20.80;37.50;20.90;94193.00;;;;10391063;28;45374;-60
2021/10/25 15:25:18;;;;;;;2.40;1.10;;;20.80;37.50;20.90;94176.00;;;;10392788;28;45186;-61
2021/10/25 15:30:19;;;;;;;2.70;1.10;;;20.80;37.40;20.90;94191.00;;;;10392008;28;45822;-62
2021/10/25 15:35:20;;;;;;;2.95;1.35;;;20.80;37.40;21.00;94185.00;;;;10392968;28;45369;-59
2021/10/25 15:40:20;;;;;;;2.83;1.48;;;20.80;37.30;21.00;94183.00;;;;10393052;28;45362;-61
2021/10/25 15:45:21;;;;;;;2.13;1.20;;;20.80;37.20;20.90;94171.00;;;;10392952;28;45185;-62
2021/10/25 15:50:22;;;;;;;3.65;1.15;;;20.80;37.50;20.90;94182.00;;;;10393121;28;45372;-63
2021/10/25 15:55:22;;;;;;;3.15;1.42;;;20.80;37.40;21.00;94180.00;;;;10391510;28;46297;-65
2021/10/25 16:00:25;;;;;;;2.38;1.20;;;20.80;37.50;21.00;94173.00;;;;10392020;28;45342;-61
2021/10/25 16:05:27;;;;;;;3.08;1.38;;;20.80;37.30;20.90;94179.00;;;;10391484;28;46823;-60
2021/10/25 16:10:28;;;;;;;6.40;1.45;;;20.80;37.40;20.90;94159.00;;;;10391746;28;45180;-60
2021/10/25 16:15:29;;;;;;;2.20;1.35;;;20.80;37.40;20.90;94165.00;;;;10386992;28;44820;-62
2021/10/25 16:20:29;;;;;;;3.00;1.40;;;20.80;37.30;20.90;94168.00;;;;10390716;28;45191;-61
2021/10/25 16:25:30;;;;;;;3.15;1.48;;;20.80;37.30;20.90;94186.00;;;;10391224;28;46647;-63
2021/10/25 16:30:31;;;;;;;1.75;1.15;;;20.80;37.30;20.90;94192.00;;;;10398182;28;45123;-63
2021/10/25 16:35:32;;;;;;;3.42;1.33;;;20.80;37.50;20.90;94182.00;;;;10397261;28;47002;-62
2021/10/25 16:40:32;;;;;;;3.88;1.40;;;20.80;37.40;20.90;94176.00;;;;10399153;28;45150;-61
2021/10/25 16:45:34;;;;;;;3.03;1.20;;;20.80;37.40;20.90;94201.00;;;;10380748;28;47054;-63
2021/10/25 16:50:36;;;;;;;2.35;1.20;;;20.80;37.30;20.90;94202.00;;;;10397608;28;45171;-63
2021/10/25 16:55:44;;;;;;;3.10;1.20;;;20.80;37.30;20.90;94201.00;;;;10393863;28;46232;-63
2021/10/25 17:11:14;;;;;;;2.67;1.33;;;20.70;37.20;20.90;94214.00;;;;10397582;28;45121;-60
2021/10/25 17:16:15;;;;;;;3.42;1.45;;;20.70;37.20;20.80;94226.00;;;;10397088;28;46193;-60
2021/10/25 17:21:17;;;;;;;5.22;1.30;;;20.70;37.20;20.80;94224.00;;;;10396232;28;46432;-61
2021/10/25 17:26:39;;;;;;;2.45;1.42;;;20.70;37.10;20.90;94224.00;;;;10390943;28;46875;-64
2021/10/25 17:31:41;;;;;;;2.30;1.30;;;20.70;37.30;20.90;94227.00;;;;10396972;28;45476;-67
2021/10/25 17:36:43;;;;;;;2.60;1.30;;;20.70;37.60;20.90;94238.00;;;;10396991;28;46185;-66
2021/10/25 17:41:44;;;;;;;5.10;1.10;;;20.70;37.70;20.90;94241.00;;;;10395752;28;47200;-69
2021/10/25 17:46:45;;;;;;;2.30;1.05;;;20.70;38.00;20.90;94250.00;;;;10393030;28;46204;-61
2021/10/25 17:51:45;;;;;;;1.80;1.10;;;20.70;38.20;20.90;94260.00;;;;10395184;28;45197;-60
2021/10/25 17:56:49;;;;;;;2.25;1.20;;;20.80;38.40;20.90;94244.00;;;;10394150;28;45478;-61
2021/10/25 18:01:52;;;;;;;3.50;1.50;;;20.70;38.10;20.90;94250.00;;;;10370180;28;46202;-62
2021/10/25 18:06:55;;;;;;;2.22;1.20;;;20.80;38.00;20.90;94246.00;;;;10355193;28;46006;-66
2021/10/25 18:11:56;;;;;;;3.45;1.40;;;20.80;38.10;20.90;94264.00;;;;10393752;28;46259;-65
2021/10/25 18:16:56;;;;;;;4.53;1.42;;;20.80;38.30;20.90;94232.00;;;;10394612;28;48218;-67
2021/10/25 18:21:58;;;;;;;2.80;1.50;;;20.80;38.80;20.90;94266.00;;;;10393907;28;45426;-65
2021/10/25 18:26:58;;;;;;;3.00;1.50;;;20.80;39.20;21.00;94256.00;;;;10392618;28;45497;-58
2021/10/25 18:32:02;;;;;;;4.07;1.83;;;20.80;39.60;21.00;94258.00;;;;10393598;28;46655;-64
2021/10/25 18:37:04;;;;;;;3.05;1.60;;;20.80;39.10;20.90;94256.00;;;;10376197;28;47434;-64
2021/10/25 18:42:06;;;;;;;4.60;1.85;;;20.80;38.90;20.90;94244.00;;;;10393078;28;45479;-64
2021/10/25 18:47:09;;;;;;;2.63;1.45;;;20.90;38.80;21.00;94252.00;;;;10392591;28;46139;-59
2021/10/25 18:52:09;;;;;;;3.85;1.58;;;20.90;39.50;20.90;94256.00;;;;10392221;28;45229;-67
2021/10/25 18:57:10;;;;;;;3.88;1.60;;;20.90;38.80;20.90;94254.00;;;;10393105;28;45257;-65
2021/10/25 19:02:12;;;;;;;4.03;1.60;;;20.90;39.10;21.00;94254.00;;;;10392367;28;47098;-66
2021/10/25 19:07:13;;;;;;;3.55;1.38;;;20.90;39.10;21.00;94264.00;;;;10388733;28;47879;-61
2021/10/25 19:12:15;;;;;;;1.88;1.40;;;20.90;39.30;21.00;94257.00;;;;10393196;28;46039;-62
2021/10/25 19:17:16;;;;;;;3.35;1.55;;;20.90;39.20;21.00;94264.00;;;;10393526;28;45245;-63
2021/10/25 19:22:17;;;;;;;2.83;1.45;;;20.90;39.00;21.00;94271.00;;;;10394048;28;45487;-63
2021/10/25 19:27:22;;;;;;;2.40;1.58;;;20.90;38.90;21.00;94263.00;;;;10394995;28;46305;-62
2021/10/25 19:32:25;;;;;;;1.83;1.20;;;20.90;38.80;21.00;94269.00;;;;10393467;28;48105;-64
2021/10/25 19:37:30;;;;;;;2.47;1.27;;;20.90;38.70;21.00;94274.00;;;;10393632;28;45194;-63
2021/10/25 19:42:37;;;;;;;2.33;1.40;;;20.90;38.60;21.00;94267.00;;;;10393516;28;47084;-63
2021/10/25 19:47:38;;;;;;;2.97;1.50;;;20.90;38.50;21.00;94265.00;;;;10398839;28;47079;-63
2021/10/25 19:52:41;;;;;;;2.85;1.60;;;20.90;38.40;21.00;94266.00;;;;10433809;28;47103;-63
2021/10/25 19:57:42;;;;;;;1.95;1.20;;;20.90;38.20;21.00;94276.00;;;;10414310;28;45328;-66
2021/10/25 20:02:44;;;;;;;2.72;1.30;;;20.90;38.10;21.00;94261.00;;;;10366158;28;45250;-67
2021/10/25 20:07:44;;;;;;;2.28;1.40;;;20.90;38.20;20.90;94278.00;;;;10349983;28;46255;-65
2021/10/25 20:12:45;;;;;;;1.60;1.23;;;20.90;38.00;20.80;94279.00;;;;10331941;28;47360;-68
2021/10/25 20:17:47;;;;;;;2.40;1.40;;;20.90;37.70;20.80;94282.00;;;;10350747;28;46706;-66
2021/10/25 20:22:48;;;;;;;1.55;1.17;;;20.90;37.50;20.80;94282.00;;;;10349487;28;46242;-66
2021/10/25 20:27:48;;;;;;;2.58;1.15;;;20.90;37.50;20.80;94283.00;;;;10350975;28;45575;-63
2021/10/25 20:32:49;;;;;;;2.13;1.40;;;20.90;37.20;20.80;94301.00;;;;10348964;28;45614;-67
2021/10/25 20:37:49;;;;;;;1.52;1.10;;;20.80;37.30;20.90;94312.00;;;;10347834;28;45193;-69
2021/10/25 20:42:51;;;;;;;1.13;1.02;;;20.80;37.20;21.00;94304.00;;;;10351081;28;45191;-59
2021/10/25 20:47:52;;;;;;;3.28;1.17;;;20.80;37.40;20.90;94296.00;;;;10384268;28;45276;-66
2021/10/25 20:52:53;;;;;;;2.10;0.90;;;20.90;37.10;21.00;94309.00;;;;10385948;28;45420;-68
2021/10/25 20:57:54;;;;;;;1.67;1.02;;;20.90;37.60;21.00;94316.00;;;;10389800;28;48343;-62
2021/10/25 21:02:56;;;;;;;1.73;1.02;;;20.90;37.50;20.90;94302.00;;;;10389329;28;45181;-61
2021/10/25 21:07:57;;;;;;;1.50;1.00;;;20.90;37.40;20.90;94321.00;;;;10389672;28;45265;-69
2021/10/25 21:12:57;;;;;;;2.22;1.27;;;20.80;37.00;21.00;94307.00;;;;10392917;28;47012;-65
2021/10/25 21:18:02;;;;;;;2.17;1.27;;;20.90;37.60;21.00;94312.00;;;;10396348;28;45348;-63
2021/10/25 21:23:03;;;;;;;2.67;1.30;;;20.90;37.40;21.00;94303.00;;;;10395902;28;47226;-61
2021/10/25 21:28:04;;;;;;;2.45;1.23;;;20.90;37.30;20.90;94306.00;;;;10395359;28;47481;-63
2021/10/25 21:33:05;;;;;;;1.65;1.20;;;20.90;37.30;20.90;94304.00;;;;10394425;28;47118;-62
2021/10/25 21:38:06;;;;;;;2.45;1.33;;;20.80;37.30;20.90;94320.00;;;;10395123;28;45331;-63
2021/10/25 21:43:07;;;;;;;2.22;1.40;;;20.80;37.30;20.90;94323.00;;;;10370664;28;45485;-63
2021/10/25 21:48:07;;;;;;;1.55;1.20;;;20.80;37.30;20.90;94320.00;;;;10372664;28;45516;-62
2021/10/25 21:53:08;;;;;;;2.22;1.23;;;20.80;37.30;20.90;94310.00;;;;10436825;28;46547;-63
2021/10/25 21:58:09;;;;;;;1.52;1.17;;;20.80;37.30;20.90;94326.00;;;;10436000;28;46340;-63
2021/10/25 22:03:11;;;;;;;1.90;1.30;;;20.80;37.30;20.90;94321.00;;;;10435456;28;46281;-61
2021/10/25 22:08:12;;;;;;;2.10;1.33;;;20.80;37.40;20.90;94333.00;;;;10435461;28;47867;-61
2021/10/25 22:13:13;;;;;;;2.15;1.05;;;20.80;37.30;20.90;94339.00;;;;10437934;28;45221;-60
2021/10/25 22:18:16;;;;;;;2.22;1.17;;;20.80;37.30;20.90;94344.00;;;;10436197;28;45441;-61
2021/10/25 22:23:18;;;;;;;2.13;1.20;;;20.70;37.30;20.90;94332.00;;;;10434699;28;45898;-61
2021/10/25 22:28:19;;;;;;;1.80;1.20;;;20.70;37.30;20.90;94330.00;;;;10435900;28;48119;-61
2021/10/25 22:33:20;;;;;;;2.00;1.23;;;20.70;37.30;20.80;94321.00;;;;10435453;28;45744;-61
2021/10/25 22:38:21;;;;;;;1.40;1.00;;;20.80;37.30;20.80;94338.00;;;;10435699;28;46635;-61
2021/10/25 22:43:21;;;;;;;2.03;1.20;;;20.70;37.20;20.80;94327.00;;;;10451679;28;47879;-61
2021/10/25 22:48:22;;;;;;;2.30;1.27;;;20.70;37.20;20.80;94333.00;;;;10423500;28;46587;-63
2021/10/25 22:53:23;;;;;;;2.65;1.20;;;20.70;37.20;20.80;94325.00;;;;10393519;28;46263;-61
2021/10/25 22:58:24;;;;;;;1.60;1.10;;;20.70;37.20;20.80;94325.00;;;;10394806;28;45753;-60
2021/10/25 23:03:24;;;;;;;1.85;1.10;;;20.70;37.20;20.80;94328.00;;;;10393577;28;45628;-62
2021/10/25 23:08:25;;;;;;;1.65;1.17;;;20.70;37.20;20.80;94317.00;;;;10393033;28;46315;-62
2021/10/25 23:13:26;;;;;;;1.70;1.20;;;20.70;37.30;20.80;94307.00;;;;10392984;28;47351;-61
2021/10/25 23:18:27;;;;;;;1.65;1.10;;;20.70;37.20;20.80;94308.00;;;;10392188;28;46921;-62
2021/10/25 23:23:27;;;;;;;2.45;1.10;;;20.70;37.20;20.80;94318.00;;;;10392850;28;46399;-60
2021/10/25 23:28:28;;;;;;;1.95;1.00;;;20.60;37.20;20.80;94325.00;;;;10393976;28;45185;-61
2021/10/25 23:33:29;;;;;;;1.67;1.20;;;20.60;37.20;20.80;94323.00;;;;10376093;28;46942;-63
2021/10/25 23:38:29;;;;;;;1.33;1.00;;;20.60;37.20;20.80;94322.00;;;;10392170;28;46775;-61
2021/10/25 23:43:30;;;;;;;2.00;1.20;;;20.60;37.20;20.80;94334.00;;;;10392249;28;48287;-61
2021/10/25 23:48:31;;;;;;;1.30;1.00;;;20.60;37.20;20.70;94343.00;;;;10392206;28;45165;-60
2021/10/25 23:53:32;;;;;;;1.35;1.10;;;20.60;37.20;20.70;94324.00;;;;10392065;28;46143;-61
2021/10/25 23:58:32;;;;;;;1.63;1.17;;;20.60;37.20;20.70;94344.00;;;;10391519;28;46593;-62
